sensor_id;sensor_type;location;lat;lon;timestamp;pressure;altitude;pressure_sealevel;temperature;humidity
77725;BME280;66892;53.236;6.550;2023-09-07T00:00:13;102201.50;;;20.59;80.48
77725;BME280;66892;53.236;6.550;2023-09-07T00:02:41;102197.16;;;20.52;81.10
77725;BME280;66892;53.236;6.550;2023-09-07T00:05:07;102193.75;;;20.45;80.78
77725;BME280;66892;53.236;6.550;2023-09-07T00:07:34;102198.44;;;20.36;81.67
77725;BME280;66892;53.236;6.550;2023-09-07T00:10:00;102203.03;;;20.31;81.63
77725;BME280;66892;53.236;6.550;2023-09-07T00:12:26;102189.81;;;20.20;82.10
77725;BME280;66892;53.236;6.550;2023-09-07T00:14:53;102195.31;;;20.14;83.52
77725;BME280;66892;53.236;6.550;2023-09-07T00:17:20;102187.38;;;20.10;83.80
77725;BME280;66892;53.236;6.550;2023-09-07T00:19:47;102194.53;;;20.08;82.59
77725;BME280;66892;53.236;6.550;2023-09-07T00:22:17;102192.66;;;20.13;82.49
77725;BME280;66892;53.236;6.550;2023-09-07T00:24:43;102190.97;;;20.09;82.50
77725;BME280;66892;53.236;6.550;2023-09-07T00:27:09;102194.72;;;20.00;84.07
77725;BME280;66892;53.236;6.550;2023-09-07T00:29:37;102202.09;;;19.90;86.02
77725;BME280;66892;53.236;6.550;2023-09-07T00:32:04;102198.84;;;19.73;86.93
77725;BME280;66892;53.236;6.550;2023-09-07T00:34:30;102198.13;;;19.64;87.83
77725;BME280;66892;53.236;6.550;2023-09-07T00:36:58;102201.00;;;19.55;88.63
77725;BME280;66892;53.236;6.550;2023-09-07T00:39:24;102204.72;;;19.46;88.93
77725;BME280;66892;53.236;6.550;2023-09-07T00:41:50;102209.28;;;19.39;89.73
77725;BME280;66892;53.236;6.550;2023-09-07T00:44:16;102200.44;;;19.33;90.51
77725;BME280;66892;53.236;6.550;2023-09-07T00:46:42;102197.94;;;19.24;90.86
77725;BME280;66892;53.236;6.550;2023-09-07T00:49:10;102196.31;;;19.15;91.60
77725;BME280;66892;53.236;6.550;2023-09-07T00:51:36;102196.38;;;19.11;91.93
77725;BME280;66892;53.236;6.550;2023-09-07T00:54:04;102201.88;;;19.03;91.89
77725;BME280;66892;53.236;6.550;2023-09-07T00:56:31;102192.94;;;19.03;91.50
77725;BME280;66892;53.236;6.550;2023-09-07T00:58:57;102191.16;;;19.03;91.59
77725;BME280;66892;53.236;6.550;2023-09-07T01:01:25;102194.72;;;19.04;91.95
77725;BME280;66892;53.236;6.550;2023-09-07T01:03:52;102198.38;;;19.00;92.32
77725;BME280;66892;53.236;6.550;2023-09-07T01:06:24;102196.69;;;18.92;92.25
77725;BME280;66892;53.236;6.550;2023-09-07T01:08:55;102193.22;;;18.87;92.80
77725;BME280;66892;53.236;6.550;2023-09-07T01:11:25;102189.63;;;18.87;93.35
77725;BME280;66892;53.236;6.550;2023-09-07T01:13:52;102197.78;;;18.81;93.65
77725;BME280;66892;53.236;6.550;2023-09-07T01:16:20;102192.47;;;18.76;94.05
77725;BME280;66892;53.236;6.550;2023-09-07T01:18:46;102198.78;;;18.72;93.96
77725;BME280;66892;53.236;6.550;2023-09-07T01:21:13;102196.16;;;18.71;93.85
77725;BME280;66892;53.236;6.550;2023-09-07T01:23:42;102192.56;;;18.70;93.66
77725;BME280;66892;53.236;6.550;2023-09-07T01:26:09;102196.16;;;18.69;94.07
77725;BME280;66892;53.236;6.550;2023-09-07T01:28:36;102190.84;;;18.66;93.52
77725;BME280;66892;53.236;6.550;2023-09-07T01:31:03;102189.97;;;18.66;94.27
77725;BME280;66892;53.236;6.550;2023-09-07T01:33:30;102187.31;;;18.63;94.85
77725;BME280;66892;53.236;6.550;2023-09-07T01:35:56;102192.81;;;18.55;95.09
77725;BME280;66892;53.236;6.550;2023-09-07T01:38:22;102192.88;;;18.51;95.24
77725;BME280;66892;53.236;6.550;2023-09-07T01:40:50;102189.31;;;18.49;95.80
77725;BME280;66892;53.236;6.550;2023-09-07T01:43:16;102193.88;;;18.42;96.08
77725;BME280;66892;53.236;6.550;2023-09-07T01:45:42;102184.09;;;18.39;96.24
77725;BME280;66892;53.236;6.550;2023-09-07T01:48:08;102191.38;;;18.28;96.10
77725;BME280;66892;53.236;6.550;2023-09-07T01:50:36;102194.06;;;18.27;96.73
77725;BME280;66892;53.236;6.550;2023-09-07T01:53:02;102195.91;;;18.22;96.42
77725;BME280;66892;53.236;6.550;2023-09-07T01:55:30;102195.03;;;18.21;95.72
77725;BME280;66892;53.236;6.550;2023-09-07T01:57:57;102195.91;;;18.22;96.23
77725;BME280;66892;53.236;6.550;2023-09-07T02:00:25;102196.81;;;18.22;95.52
77725;BME280;66892;53.236;6.550;2023-09-07T02:02:51;102191.47;;;18.21;96.83
77725;BME280;66892;53.236;6.550;2023-09-07T02:05:17;102197.78;;;18.15;97.34
77725;BME280;66892;53.236;6.550;2023-09-07T02:07:43;102197.88;;;18.09;97.65
77725;BME280;66892;53.236;6.550;2023-09-07T02:10:10;102203.34;;;18.00;97.95
77725;BME280;66892;53.236;6.550;2023-09-07T02:12:36;102195.34;;;17.96;98.48
77725;BME280;66892;53.236;6.550;2023-09-07T02:15:04;102195.50;;;17.85;98.59
77725;BME280;66892;53.236;6.550;2023-09-07T02:17:31;102206.22;;;17.82;99.17
77725;BME280;66892;53.236;6.550;2023-09-07T02:19:58;102202.69;;;17.80;99.45
77725;BME280;66892;53.236;6.550;2023-09-07T02:22:24;102200.09;;;17.75;99.69
77725;BME280;66892;53.236;6.550;2023-09-07T02:24:50;102196.56;;;17.70;99.84
77725;BME280;66892;53.236;6.550;2023-09-07T02:27:16;102199.22;;;17.70;99.74
77725;BME280;66892;53.236;6.550;2023-09-07T02:29:42;102198.44;;;17.61;100.00
77725;BME280;66892;53.236;6.550;2023-09-07T02:32:10;102198.50;;;17.56;100.00
77725;BME280;66892;53.236;6.550;2023-09-07T02:34:36;102194.94;;;17.53;100.00
77725;BME280;66892;53.236;6.550;2023-09-07T02:37:02;102191.41;;;17.49;100.00
77725;BME280;66892;53.236;6.550;2023-09-07T02:39:28;102199.50;;;17.42;100.00
77725;BME280;66892;53.236;6.550;2023-09-07T02:41:54;102195.06;;;17.39;100.00
77725;BME280;66892;53.236;6.550;2023-09-07T02:44:20;102196.00;;;17.35;100.00
77725;BME280;66892;53.236;6.550;2023-09-07T02:46:46;102196.94;;;17.28;100.00
77725;BME280;66892;53.236;6.550;2023-09-07T02:49:14;102197.84;;;17.30;100.00
77725;BME280;66892;53.236;6.550;2023-09-07T02:51:40;102197.78;;;17.34;100.00
77725;BME280;66892;53.236;6.550;2023-09-07T02:54:06;102204.97;;;17.29;100.00
77725;BME280;66892;53.236;6.550;2023-09-07T02:56:32;102201.44;;;17.26;100.00
77725;BME280;66892;53.236;6.550;2023-09-07T02:58:58;102192.53;;;17.25;100.00
77725;BME280;66892;53.236;6.550;2023-09-07T03:01:25;102197.00;;;17.22;100.00
77725;BME280;66892;53.236;6.550;2023-09-07T03:03:51;102189.09;;;17.13;100.00
77725;BME280;66892;53.236;6.550;2023-09-07T03:06:18;102189.09;;;17.08;100.00
77725;BME280;66892;53.236;6.550;2023-09-07T03:08:45;102184.69;;;17.07;100.00
77725;BME280;66892;53.236;6.550;2023-09-07T03:11:12;102187.31;;;17.09;100.00
77725;BME280;66892;53.236;6.550;2023-09-07T03:13:38;102183.78;;;17.07;100.00
77725;BME280;66892;53.236;6.550;2023-09-07T03:16:04;102191.78;;;17.08;100.00
77725;BME280;66892;53.236;6.550;2023-09-07T03:18:31;102192.66;;;17.09;100.00
77725;BME280;66892;53.236;6.550;2023-09-07T03:20:58;102194.47;;;17.10;100.00
77725;BME280;66892;53.236;6.550;2023-09-07T03:23:26;102207.81;;;17.08;100.00
77725;BME280;66892;53.236;6.550;2023-09-07T03:25:53;102199.84;;;17.04;100.00
77725;BME280;66892;53.236;6.550;2023-09-07T03:28:19;102191.00;;;16.96;100.00
77725;BME280;66892;53.236;6.550;2023-09-07T03:30:45;102187.47;;;16.94;100.00
77725;BME280;66892;53.236;6.550;2023-09-07T03:33:11;102198.13;;;16.97;100.00
77725;BME280;66892;53.236;6.550;2023-09-07T03:35:37;102192.72;;;17.04;100.00
77725;BME280;66892;53.236;6.550;2023-09-07T03:38:04;102199.78;;;17.08;100.00
77725;BME280;66892;53.236;6.550;2023-09-07T03:40:31;102201.59;;;17.11;100.00
77725;BME280;66892;53.236;6.550;2023-09-07T03:42:57;102204.25;;;17.11;100.00
77725;BME280;66892;53.236;6.550;2023-09-07T03:45:23;102204.25;;;17.11;100.00
77725;BME280;66892;53.236;6.550;2023-09-07T03:47:49;102195.31;;;17.12;100.00
77725;BME280;66892;53.236;6.550;2023-09-07T03:50:15;102197.09;;;17.13;100.00
77725;BME280;66892;53.236;6.550;2023-09-07T03:52:41;102198.00;;;17.12;100.00
77725;BME280;66892;53.236;6.550;2023-09-07T03:55:07;102201.63;;;17.08;100.00
77725;BME280;66892;53.236;6.550;2023-09-07T03:57:35;102206.09;;;17.04;100.00
77725;BME280;66892;53.236;6.550;2023-09-07T04:00:01;102202.56;;;17.01;100.00
77725;BME280;66892;53.236;6.550;2023-09-07T04:02:27;102202.63;;;16.92;100.00
77725;BME280;66892;53.236;6.550;2023-09-07T04:04:54;102195.56;;;16.84;100.00
77725;BME280;66892;53.236;6.550;2023-09-07T04:07:23;102199.19;;;16.76;100.00
77725;BME280;66892;53.236;6.550;2023-09-07T04:09:50;102200.09;;;16.75;100.00
77725;BME280;66892;53.236;6.550;2023-09-07T04:12:16;102193.78;;;16.85;100.00
77725;BME280;66892;53.236;6.550;2023-09-07T04:14:44;102193.75;;;16.86;100.00
77725;BME280;66892;53.236;6.550;2023-09-07T04:17:10;102188.41;;;16.88;100.00
77725;BME280;66892;53.236;6.550;2023-09-07T04:19:36;102190.22;;;16.84;100.00
77725;BME280;66892;53.236;6.550;2023-09-07T04:22:02;102190.22;;;16.83;100.00
77725;BME280;66892;53.236;6.550;2023-09-07T04:24:29;102198.28;;;16.78;100.00
77725;BME280;66892;53.236;6.550;2023-09-07T04:26:58;102200.97;;;16.75;100.00
77725;BME280;66892;53.236;6.550;2023-09-07T04:29:25;102197.44;;;16.67;100.00
77725;BME280;66892;53.236;6.550;2023-09-07T04:31:52;102187.72;;;16.62;100.00
77725;BME280;66892;53.236;6.550;2023-09-07T04:34:18;102193.97;;;16.53;100.00
77725;BME280;66892;53.236;6.550;2023-09-07T04:36:44;102192.22;;;16.49;100.00
77725;BME280;66892;53.236;6.550;2023-09-07T04:39:10;102196.69;;;16.46;100.00
77725;BME280;66892;53.236;6.550;2023-09-07T04:41:36;102194.91;;;16.43;100.00
77725;BME280;66892;53.236;6.550;2023-09-07T04:44:03;102192.25;;;16.42;100.00
77725;BME280;66892;53.236;6.550;2023-09-07T04:46:29;102185.13;;;16.38;100.00
77725;BME280;66892;53.236;6.550;2023-09-07T04:48:56;102192.31;;;16.34;100.00
77725;BME280;66892;53.236;6.550;2023-09-07T04:51:22;102202.09;;;16.30;100.00
77725;BME280;66892;53.236;6.550;2023-09-07T04:53:49;102198.53;;;16.28;100.00
77725;BME280;66892;53.236;6.550;2023-09-07T04:56:15;102197.66;;;16.28;100.00
77725;BME280;66892;53.236;6.550;2023-09-07T04:58:42;102201.22;;;16.30;100.00
77725;BME280;66892;53.236;6.550;2023-09-07T05:01:09;102204.78;;;16.27;100.00
77725;BME280;66892;53.236;6.550;2023-09-07T05:03:36;102205.69;;;16.26;100.00
77725;BME280;66892;53.236;6.550;2023-09-07T05:06:04;102203.00;;;16.25;100.00
77725;BME280;66892;53.236;6.550;2023-09-07T05:08:31;102199.47;;;16.23;100.00
77725;BME280;66892;53.236;6.550;2023-09-07T05:10:58;102206.59;;;16.21;100.00
77725;BME280;66892;53.236;6.550;2023-09-07T05:13:26;102206.56;;;16.25;100.00
77725;BME280;66892;53.236;6.550;2023-09-07T05:15:54;102211.00;;;16.31;100.00
77725;BME280;66892;53.236;6.550;2023-09-07T05:18:21;102207.41;;;16.35;100.00
77725;BME280;66892;53.236;6.550;2023-09-07T05:20:48;102207.38;;;16.41;100.00
77725;BME280;66892;53.236;6.550;2023-09-07T05:23:19;102214.47;;;16.45;100.00
77725;BME280;66892;53.236;6.550;2023-09-07T05:25:45;102211.81;;;16.45;100.00
77725;BME280;66892;53.236;6.550;2023-09-07T05:28:12;102213.59;;;16.45;100.00
77725;BME280;66892;53.236;6.550;2023-09-07T05:30:39;102211.81;;;16.47;100.00
77725;BME280;66892;53.236;6.550;2023-09-07T05:33:05;102217.13;;;16.56;100.00
77725;BME280;66892;53.236;6.550;2023-09-07T05:35:31;102221.56;;;16.60;100.00
77725;BME280;66892;53.236;6.550;2023-09-07T05:37:58;102219.75;;;16.62;100.00
77725;BME280;66892;53.236;6.550;2023-09-07T05:40:25;102217.94;;;16.65;100.00
77725;BME280;66892;53.236;6.550;2023-09-07T05:42:52;102224.13;;;16.73;100.00
77725;BME280;66892;53.236;6.550;2023-09-07T05:45:18;102226.72;;;16.82;100.00
77725;BME280;66892;53.236;6.550;2023-09-07T05:47:44;102227.56;;;16.95;99.75
77725;BME280;66892;53.236;6.550;2023-09-07T05:50:10;102221.16;;;17.13;98.60
77725;BME280;66892;53.236;6.550;2023-09-07T05:52:36;102221.97;;;17.22;97.08
77725;BME280;66892;53.236;6.550;2023-09-07T05:55:02;102233.47;;;17.32;96.89
77725;BME280;66892;53.236;6.550;2023-09-07T05:57:30;102228.03;;;17.43;95.31
77725;BME280;66892;53.236;6.550;2023-09-07T05:59:56;102231.50;;;17.55;94.84
77725;BME280;66892;53.236;6.550;2023-09-07T06:02:22;102235.88;;;17.64;93.83
77725;BME280;66892;53.236;6.550;2023-09-07T06:04:48;102227.69;;;17.77;93.19
77725;BME280;66892;53.236;6.550;2023-09-07T06:07:14;102240.28;;;18.42;91.29
77725;BME280;66892;53.236;6.550;2023-09-07T06:09:40;102243.66;;;19.68;84.17
77725;BME280;66892;53.236;6.550;2023-09-07T06:12:06;102237.38;;;19.71;83.57
77725;BME280;66892;53.236;6.550;2023-09-07T06:14:34;102240.78;;;19.27;84.03
77725;BME280;66892;53.236;6.550;2023-09-07T06:17:00;102248.41;;;19.01;85.42
77725;BME280;66892;53.236;6.550;2023-09-07T06:19:26;102243.34;;;18.81;86.50
77725;BME280;66892;53.236;6.550;2023-09-07T06:21:52;102238.03;;;18.76;86.37
77725;BME280;66892;53.236;6.550;2023-09-07T06:24:18;102245.13;;;18.79;86.17
77725;BME280;66892;53.236;6.550;2023-09-07T06:26:44;102245.38;;;19.74;83.90
77725;BME280;66892;53.236;6.550;2023-09-07T06:29:12;102243.56;;;21.35;74.54
77725;BME280;66892;53.236;6.550;2023-09-07T06:31:39;102240.16;;;22.56;70.38
77725;BME280;66892;53.236;6.550;2023-09-07T06:34:05;102244.09;;;23.82;63.82
77725;BME280;66892;53.236;6.550;2023-09-07T06:36:31;102251.69;;;24.67;59.91
77725;BME280;66892;53.236;6.550;2023-09-07T06:38:57;102242.34;;;25.19;57.33
77725;BME280;66892;53.236;6.550;2023-09-07T06:41:24;102237.47;;;25.49;55.53
77725;BME280;66892;53.236;6.550;2023-09-07T06:43:50;102231.75;;;25.97;54.17
77725;BME280;66892;53.236;6.550;2023-09-07T06:46:16;102239.00;;;26.16;52.69
77725;BME280;66892;53.236;6.550;2023-09-07T06:48:44;102236.75;;;25.86;53.42
77725;BME280;66892;53.236;6.550;2023-09-07T06:51:10;102241.63;;;25.98;52.92
77725;BME280;66892;53.236;6.550;2023-09-07T06:53:36;102246.56;;;26.29;52.67
77725;BME280;66892;53.236;6.550;2023-09-07T06:56:03;102245.78;;;26.64;51.44
77725;BME280;66892;53.236;6.550;2023-09-07T06:58:30;102247.25;;;26.90;50.00
77725;BME280;66892;53.236;6.550;2023-09-07T07:00:58;102254.50;;;27.44;48.28
77725;BME280;66892;53.236;6.550;2023-09-07T07:03:26;102261.16;;;27.72;47.36
77725;BME280;66892;53.236;6.550;2023-09-07T07:05:54;102254.00;;;28.04;46.48
77725;BME280;66892;53.236;6.550;2023-09-07T07:08:21;102263.50;;;28.30;45.50
77725;BME280;66892;53.236;6.550;2023-09-07T07:10:47;102265.66;;;28.23;45.17
77725;BME280;66892;53.236;6.550;2023-09-07T07:13:13;102264.44;;;28.29;45.20
77725;BME280;66892;53.236;6.550;2023-09-07T07:15:39;102263.81;;;28.57;44.59
77725;BME280;66892;53.236;6.550;2023-09-07T07:18:05;102266.16;;;28.96;43.85
77725;BME280;66892;53.236;6.550;2023-09-07T07:20:34;102259.38;;;29.18;42.80
77725;BME280;66892;53.236;6.550;2023-09-07T07:23:01;102268.06;;;29.41;42.65
77725;BME280;66892;53.236;6.550;2023-09-07T07:25:27;102269.88;;;29.56;42.00
77725;BME280;66892;53.236;6.550;2023-09-07T07:27:54;102263.09;;;29.77;41.33
77725;BME280;66892;53.236;6.550;2023-09-07T07:30:20;102263.44;;;29.87;41.22
77725;BME280;66892;53.236;6.550;2023-09-07T07:32:46;102261.91;;;29.97;41.32
77725;BME280;66892;53.236;6.550;2023-09-07T07:35:12;102259.00;;;30.28;40.33
77725;BME280;66892;53.236;6.550;2023-09-07T07:37:38;102259.59;;;30.19;40.12
77725;BME280;66892;53.236;6.550;2023-09-07T07:40:07;102253.09;;;30.50;40.14
77725;BME280;66892;53.236;6.550;2023-09-07T07:42:33;102252.09;;;30.79;39.09
77725;BME280;66892;53.236;6.550;2023-09-07T07:44:59;102253.56;;;30.70;38.76
77725;BME280;66892;53.236;6.550;2023-09-07T07:47:25;102246.97;;;30.46;39.14
77725;BME280;66892;53.236;6.550;2023-09-07T07:49:52;102250.34;;;30.07;40.00
77725;BME280;66892;53.236;6.550;2023-09-07T07:52:18;102252.31;;;30.05;40.33
77725;BME280;66892;53.236;6.550;2023-09-07T07:54:44;102255.03;;;30.05;40.67
77725;BME280;66892;53.236;6.550;2023-09-07T07:57:11;102248.69;;;30.75;39.44
77725;BME280;66892;53.236;6.550;2023-09-07T07:59:38;102248.97;;;31.12;38.79
77725;BME280;66892;53.236;6.550;2023-09-07T08:02:04;102253.19;;;31.17;38.38
77725;BME280;66892;53.236;6.550;2023-09-07T08:04:31;102253.00;;;30.92;38.58
77725;BME280;66892;53.236;6.550;2023-09-07T08:06:58;102245.53;;;31.22;39.14
77725;BME280;66892;53.236;6.550;2023-09-07T08:09:29;102250.78;;;31.25;38.49
77725;BME280;66892;53.236;6.550;2023-09-07T08:11:56;102249.22;;;31.48;37.31
77725;BME280;66892;53.236;6.550;2023-09-07T08:14:24;102243.94;;;31.32;38.26
77725;BME280;66892;53.236;6.550;2023-09-07T08:16:51;102250.63;;;31.80;36.93
77725;BME280;66892;53.236;6.550;2023-09-07T08:19:17;102245.91;;;31.82;37.57
77725;BME280;66892;53.236;6.550;2023-09-07T08:21:43;102251.09;;;32.00;37.29
77725;BME280;66892;53.236;6.550;2023-09-07T08:24:11;102259.66;;;32.58;36.38
77725;BME280;66892;53.236;6.550;2023-09-07T08:26:38;102260.63;;;32.45;36.07
77725;BME280;66892;53.236;6.550;2023-09-07T08:29:04;102261.81;;;32.53;36.82
77725;BME280;66892;53.236;6.550;2023-09-07T08:31:33;102256.22;;;32.67;36.18
77725;BME280;66892;53.236;6.550;2023-09-07T08:33:59;102258.41;;;32.75;36.18
77725;BME280;66892;53.236;6.550;2023-09-07T08:36:25;102258.66;;;32.72;36.17
77725;BME280;66892;53.236;6.550;2023-09-07T08:38:54;102250.56;;;32.94;35.85
77725;BME280;66892;53.236;6.550;2023-09-07T08:41:21;102253.81;;;33.12;35.17
77725;BME280;66892;53.236;6.550;2023-09-07T08:43:47;102258.34;;;33.24;35.40
77725;BME280;66892;53.236;6.550;2023-09-07T08:46:18;102249.88;;;33.27;34.47
77725;BME280;66892;53.236;6.550;2023-09-07T08:48:47;102245.94;;;32.95;34.58
77725;BME280;66892;53.236;6.550;2023-09-07T08:51:16;102249.44;;;33.09;34.90
77725;BME280;66892;53.236;6.550;2023-09-07T08:53:43;102248.75;;;33.06;35.09
77725;BME280;66892;53.236;6.550;2023-09-07T08:56:12;102253.84;;;32.99;34.99
77725;BME280;66892;53.236;6.550;2023-09-07T08:58:38;102246.00;;;33.42;34.56
77725;BME280;66892;53.236;6.550;2023-09-07T09:01:06;102235.13;;;33.64;33.03
77725;BME280;66892;53.236;6.550;2023-09-07T09:03:34;102237.59;;;33.09;33.53
77725;BME280;66892;53.236;6.550;2023-09-07T09:06:03;102234.13;;;32.94;34.62
77725;BME280;66892;53.236;6.550;2023-09-07T09:08:30;102239.38;;;32.97;34.69
77725;BME280;66892;53.236;6.550;2023-09-07T09:11:06;102237.06;;;33.04;34.60
77725;BME280;66892;53.236;6.550;2023-09-07T09:13:33;102233.34;;;33.28;34.22
77725;BME280;66892;53.236;6.550;2023-09-07T09:15:59;102236.56;;;33.57;33.32
77725;BME280;66892;53.236;6.550;2023-09-07T09:18:25;102231.91;;;33.70;33.32
77725;BME280;66892;53.236;6.550;2023-09-07T09:20:52;102234.06;;;33.54;32.74
77725;BME280;66892;53.236;6.550;2023-09-07T09:23:20;102231.50;;;33.40;33.53
77725;BME280;66892;53.236;6.550;2023-09-07T09:25:47;102228.56;;;33.19;34.15
77725;BME280;66892;53.236;6.550;2023-09-07T09:28:14;102221.66;;;33.37;33.53
77725;BME280;66892;53.236;6.550;2023-09-07T09:30:41;102222.53;;;33.62;33.87
77725;BME280;66892;53.236;6.550;2023-09-07T09:33:09;102216.97;;;33.51;33.54
77725;BME280;66892;53.236;6.550;2023-09-07T09:35:36;102219.59;;;33.87;32.95
77725;BME280;66892;53.236;6.550;2023-09-07T09:38:03;102211.78;;;34.16;32.69
77725;BME280;66892;53.236;6.550;2023-09-07T09:40:32;102206.13;;;34.06;32.75
77725;BME280;66892;53.236;6.550;2023-09-07T09:43:02;102201.91;;;34.13;32.33
77725;BME280;66892;53.236;6.550;2023-09-07T09:45:28;102205.59;;;33.68;32.70
77725;BME280;66892;53.236;6.550;2023-09-07T09:47:55;102204.69;;;33.32;32.70
77725;BME280;66892;53.236;6.550;2023-09-07T09:50:26;102204.06;;;33.29;33.07
77725;BME280;66892;53.236;6.550;2023-09-07T09:52:53;102197.94;;;33.36;32.09
77725;BME280;66892;53.236;6.550;2023-09-07T09:55:19;102202.22;;;33.40;31.92
77725;BME280;66892;53.236;6.550;2023-09-07T09:57:47;102192.47;;;33.36;32.62
77725;BME280;66892;53.236;6.550;2023-09-07T10:00:14;102198.72;;;33.73;31.34
77725;BME280;66892;53.236;6.550;2023-09-07T10:02:43;102191.25;;;33.98;31.50
77725;BME280;66892;53.236;6.550;2023-09-07T10:05:10;102197.03;;;33.49;31.74
77725;BME280;66892;53.236;6.550;2023-09-07T10:07:42;102187.84;;;33.61;32.13
77725;BME280;66892;53.236;6.550;2023-09-07T10:10:09;102182.13;;;33.64;32.00
77725;BME280;66892;53.236;6.550;2023-09-07T10:12:40;102183.41;;;33.36;31.92
77725;BME280;66892;53.236;6.550;2023-09-07T10:15:19;102186.47;;;33.31;31.42
77725;BME280;66892;53.236;6.550;2023-09-07T10:17:45;102183.91;;;33.41;32.17
77725;BME280;66892;53.236;6.550;2023-09-07T10:20:16;102195.44;;;33.33;31.64
77725;BME280;66892;53.236;6.550;2023-09-07T10:22:42;102187.03;;;33.59;32.25
77725;BME280;66892;53.236;6.550;2023-09-07T10:25:18;102175.91;;;33.49;31.95
77725;BME280;66892;53.236;6.550;2023-09-07T10:27:44;102182.28;;;33.38;31.97
77725;BME280;66892;53.236;6.550;2023-09-07T10:30:12;102178.50;;;33.63;32.22
77725;BME280;66892;53.236;6.550;2023-09-07T10:32:39;102173.19;;;33.49;31.82
77725;BME280;66892;53.236;6.550;2023-09-07T10:35:13;102171.56;;;33.47;32.33
77725;BME280;66892;53.236;6.550;2023-09-07T10:37:39;102179.69;;;33.48;32.19
77725;BME280;66892;53.236;6.550;2023-09-07T10:40:07;102178.06;;;33.57;31.44
77725;BME280;66892;53.236;6.550;2023-09-07T10:42:38;102171.06;;;33.53;31.92
77725;BME280;66892;53.236;6.550;2023-09-07T10:45:14;102178.16;;;33.44;32.01
77725;BME280;66892;53.236;6.550;2023-09-07T10:47:42;102173.19;;;33.84;31.82
77725;BME280;66892;53.236;6.550;2023-09-07T10:50:10;102169.91;;;33.79;31.47
77725;BME280;66892;53.236;6.550;2023-09-07T10:52:38;102175.69;;;33.17;31.09
77725;BME280;66892;53.236;6.550;2023-09-07T10:55:06;102180.78;;;33.11;32.68
77725;BME280;66892;53.236;6.550;2023-09-07T10:57:32;102166.22;;;33.10;31.58
77725;BME280;66892;53.236;6.550;2023-09-07T11:00:07;102164.31;;;32.87;31.84
77725;BME280;66892;53.236;6.550;2023-09-07T11:02:37;102166.22;;;32.98;32.13
77725;BME280;66892;53.236;6.550;2023-09-07T11:05:04;102168.22;;;32.96;32.36
77725;BME280;66892;53.236;6.550;2023-09-07T11:07:31;102166.47;;;32.71;32.42
77725;BME280;66892;53.236;6.550;2023-09-07T11:09:57;102158.78;;;32.76;32.44
77725;BME280;66892;53.236;6.550;2023-09-07T11:12:23;102164.72;;;32.70;33.29
77725;BME280;66892;53.236;6.550;2023-09-07T11:14:50;102155.56;;;32.58;32.41
77725;BME280;66892;53.236;6.550;2023-09-07T11:17:16;102161.06;;;32.58;32.33
77725;BME280;66892;53.236;6.550;2023-09-07T11:19:44;102156.78;;;32.42;32.70
77725;BME280;66892;53.236;6.550;2023-09-07T11:22:10;102157.53;;;32.44;32.25
77725;BME280;66892;53.236;6.550;2023-09-07T11:24:36;102146.78;;;32.17;32.43
77725;BME280;66892;53.236;6.550;2023-09-07T11:27:02;102160.25;;;31.82;32.19
77725;BME280;66892;53.236;6.550;2023-09-07T11:29:31;102154.53;;;31.60;32.09
77725;BME280;66892;53.236;6.550;2023-09-07T11:32:05;102139.94;;;31.34;32.65
77725;BME280;66892;53.236;6.550;2023-09-07T11:34:32;102144.91;;;31.15;33.54
77725;BME280;66892;53.236;6.550;2023-09-07T11:37:03;102149.09;;;31.08;33.63
77725;BME280;66892;53.236;6.550;2023-09-07T11:39:29;102138.47;;;30.89;33.72
77725;BME280;66892;53.236;6.550;2023-09-07T11:41:55;102133.59;;;30.67;33.94
77725;BME280;66892;53.236;6.550;2023-09-07T11:44:21;102133.06;;;30.48;34.71
77725;BME280;66892;53.236;6.550;2023-09-07T11:46:47;102121.38;;;30.32;34.92
77725;BME280;66892;53.236;6.550;2023-09-07T11:49:13;102129.69;;;30.30;35.71
77725;BME280;66892;53.236;6.550;2023-09-07T11:51:39;102113.38;;;30.29;36.12
77725;BME280;66892;53.236;6.550;2023-09-07T11:54:07;102109.50;;;30.33;35.85
77725;BME280;66892;53.236;6.550;2023-09-07T11:56:33;102114.47;;;30.26;35.53
77725;BME280;66892;53.236;6.550;2023-09-07T11:59:03;102114.59;;;30.11;36.33
77725;BME280;66892;53.236;6.550;2023-09-07T12:01:29;102115.88;;;30.05;35.67
77725;BME280;66892;53.236;6.550;2023-09-07T12:03:56;102116.16;;;30.01;36.23
77725;BME280;66892;53.236;6.550;2023-09-07T12:06:22;102106.25;;;29.86;36.44
77725;BME280;66892;53.236;6.550;2023-09-07T12:08:58;102117.41;;;29.81;35.98
77725;BME280;66892;53.236;6.550;2023-09-07T12:11:27;102110.28;;;29.64;36.64
77725;BME280;66892;53.236;6.550;2023-09-07T12:13:53;102103.69;;;29.68;37.70
77725;BME280;66892;53.236;6.550;2023-09-07T12:16:19;102101.03;;;29.81;37.07
77725;BME280;66892;53.236;6.550;2023-09-07T12:18:45;102105.94;;;29.76;37.38
77725;BME280;66892;53.236;6.550;2023-09-07T12:21:11;102093.81;;;29.80;37.95
77725;BME280;66892;53.236;6.550;2023-09-07T12:23:37;102090.09;;;29.83;36.87
77725;BME280;66892;53.236;6.550;2023-09-07T12:26:03;102100.41;;;29.92;37.45
77725;BME280;66892;53.236;6.550;2023-09-07T12:28:32;102095.22;;;30.01;37.31
77725;BME280;66892;53.236;6.550;2023-09-07T12:30:58;102091.06;;;29.96;36.68
77725;BME280;66892;53.236;6.550;2023-09-07T12:33:24;102087.91;;;29.88;35.67
77725;BME280;66892;53.236;6.550;2023-09-07T12:35:50;102097.56;;;29.79;35.92
77725;BME280;66892;53.236;6.550;2023-09-07T12:38:16;102096.56;;;29.66;37.30
77725;BME280;66892;53.236;6.550;2023-09-07T12:40:48;102089.09;;;29.69;37.48
77725;BME280;66892;53.236;6.550;2023-09-07T12:43:14;102081.66;;;29.71;37.26
77725;BME280;66892;53.236;6.550;2023-09-07T12:45:41;102108.53;;;29.77;37.86